Observations for WELLINGTON INTL, New Zealand (NZWN)

NZWN 192000Z AUTO 01016KT 9999 BKN017/// BKN023/// 14/11 Q1014 NOSIG
NZWN 191930Z AUTO 01015KT 9999 BKN017/// 14/11 Q1014 NOSIG  
NZWN 191900Z AUTO 02012KT 9999 SCT016/// 14/11 Q1014 NOSIG  
NZWN 191830Z AUTO 03011KT 9999 FEW016/// 13/11 Q1013 NOSIG  
NZWN 191800Z AUTO 02012KT 9999 BKN019/// 13/11 Q1013 NOSIG  
NZWN 191730Z AUTO 01011KT 9999 FEW019/// 13/10 Q1013 NOSIG  
NZWN 191700Z AUTO 01009KT 9999 SCT060/// 13/11 Q1013 NOSIG  
NZWN 191630Z AUTO 01008KT 9999 FEW060/// 12/11 Q1013 NOSIG  
NZWN 191600Z AUTO 35007KT 9999 FEW019/// SCT065/// 12/11 Q1012 NOSIG
NZWN 191530Z AUTO 34006KT 9999 BKN020/// BKN060/// 13/11 Q1012 NOSIG
NZWN 191500Z AUTO 02006KT 9999 BKN019/// 13/11 Q1012 NOSIG  
NZWN 191430Z AUTO 03008KT 9999 OVC018/// 13/11 Q1012 NOSIG  
NZWN 191400Z AUTO 36009KT 9999 BKN018/// 13/11 Q1012 NOSIG  
NZWN 191330Z AUTO 35009KT 9999 BKN017/// 13/11 Q1012 NOSIG  
NZWN 191300Z AUTO 35006KT 9999 SCT017/// 13/11 Q1011 NOSIG  
NZWN 191230Z AUTO 36006KT 9999 FEW017/// 13/11 Q1011 NOSIG  
NZWN 191200Z AUTO 35006KT 9999 FEW016/// 13/11 Q1011 NOSIG  
NZWN 191130Z AUTO 36008KT 9999 NCD 13/11 Q1011 NOSIG
NZWN 191100Z AUTO 01010KT 9999 FEW016/// 13/11 Q1010 NOSIG  
NZWN 191030Z AUTO 01011KT 9999 BKN017/// 14/11 Q1010 NOSIG  
NZWN 191000Z AUTO 02011KT 9999 BKN016/// OVC070/// 14/12 Q1010 NOSIG
NZWN 190930Z AUTO 01012KT 9999 BKN016/// BKN070/// 14/12 Q1010 NOSIG
NZWN 190900Z AUTO 02011KT 9999 BKN016/// OVC075/// 14/12 Q1010 NOSIG
NZWN 190830Z AUTO 02011KT 9999 BKN016/// OVC070/// 14/12 Q1010 NOSIG
NZWN 190800Z AUTO 02010KT 9999 BKN016/// BKN070/// 14/12 Q1009 NOSIG
NZWN 190730Z AUTO 02010KT 9999 OVC016/// 14/12 Q1009 TEMPO TL0800Z BKN014   
NZWN 190700Z AUTO 01010KT 9999 BKN015/// 14/12 Q1008 TEMPO TL0800Z BKN014   
NZWN 190630Z AUTO 01011KT 9999 FEW070/// 14/12 Q1007 NOSIG  
NZWN 190600Z AUTO 02011KT 9999 BKN100/// 15/12 Q1007 NOSIG  
NZWN 190530Z AUTO 02011KT 9999 FEW070/// BKN095/// 16/12 Q1007 NOSIG
NZWN 190500Z AUTO 09004KT 290V230 9999 BKN075/// BKN095/// 16/13 Q1006 NOSIG
NZWN 190430Z AUTO 36008KT 270V180 9999 FEW025/// BKN075/// 16/12 Q1005 NOSIG
NZWN 190400Z AUTO 19006KT 130V340 9999 BKN027/// BKN080/// 15/12 Q1005 NOSIG
NZWN 190330Z AUTO 33009KT 9999 BKN085/// 17/11 Q1005 BECMG 19010KT  
NZWN 190300Z AUTO 32009KT 290V020 9999 FEW022/// 17/12 Q1004 BECMG FM0330 19010KT   
NZWN 190230Z AUTO 34009KT 300V010 9999 NCD 18/12 Q1004 BECMG FM0330 19010KT 
NZWN 190200Z AUTO 32012KT 290V360 9999 NCD 17/12 Q1003 BECMG AT0300 19010KT 
NZWN 190130Z AUTO 33016KT 9999 FEW019/// 17/11 Q1003 BECMG AT0300 19010KT   
NZWN 190100Z AUTO 33016KT 300V010 9999 FEW020/// 16/12 Q1003 BECMG AT0300 19010KT   
NZWN 190030Z AUTO 34015KT 300V360 9999 BKN020/// BKN090/// 16/11 Q1002 NOSIG
NZWN 190000Z AUTO 34016KT 9999 BKN018/// OVC095/// 16/11 Q1002 NOSIG
NZWN 182330Z AUTO 35015KT 9999 OVC014/// 16/12 Q1002 BECMG SCT015 BKN020
NZWN 182300Z AUTO 34014G24KT 300V010 9999 BKN014/// 15/12 Q1002 BECMG SCT015 BKN020 
NZWN 182230Z AUTO 34016KT 9999 BKN017/// BKN038/// 15/12 Q1002 NOSIG
NZWN 182200Z AUTO 35016G27KT 320V020 9999 BKN015/// 15/12 Q1002 NOSIG   
NZWN 182130Z AUTO 34019G30KT 9999 VCSH BKN016/// 14/11 Q1002 NOSIG  
NZWN 182100Z AUTO 35018G29KT 9999 BKN017/// BKN024/// 14/12 Q1001 NOSIG 
NZWN 182030Z AUTO 35016G26KT 9999 BKN017/// OVC036/// 14/12 Q1001 TEMPO 6000 SHRA   
NZWN 182000Z AUTO 36017KT 9999 -RA OVC015/// 13/12 Q1001 TEMPO 6000 SHRA BKN014 FEW020TCU   
NZWN 181930Z AUTO 02012KT 9999 VCSH OVC017/// 13/11 Q1001 TEMPO 6000 SHRA BKN014 FEW020TCU